sensor_id;sensor_type;location;lat;lon;timestamp;P1;durP1;ratioP1;P2;durP2;ratioP2
19679;SDS011;9989;48.962;9.182;2023-05-29T00:00:18;12.93;;;5.57;;
19679;SDS011;9989;48.962;9.182;2023-05-29T00:02:45;12.63;;;6.37;;
19679;SDS011;9989;48.962;9.182;2023-05-29T00:05:16;13.00;;;6.10;;
19679;SDS011;9989;48.962;9.182;2023-05-29T00:07:42;11.23;;;5.77;;
19679;SDS011;9989;48.962;9.182;2023-05-29T00:10:08;11.70;;;6.23;;
19679;SDS011;9989;48.962;9.182;2023-05-29T00:12:35;11.27;;;5.77;;
19679;SDS011;9989;48.962;9.182;2023-05-29T00:15:02;11.93;;;5.87;;
19679;SDS011;9989;48.962;9.182;2023-05-29T00:17:31;12.20;;;5.37;;
19679;SDS011;9989;48.962;9.182;2023-05-29T00:19:58;13.67;;;5.73;;
19679;SDS011;9989;48.962;9.182;2023-05-29T00:22:24;11.53;;;6.00;;
19679;SDS011;9989;48.962;9.182;2023-05-29T00:24:53;12.33;;;6.43;;
19679;SDS011;9989;48.962;9.182;2023-05-29T00:27:19;12.53;;;6.40;;
19679;SDS011;9989;48.962;9.182;2023-05-29T00:29:45;10.90;;;5.80;;
19679;SDS011;9989;48.962;9.182;2023-05-29T00:32:11;12.10;;;6.43;;
19679;SDS011;9989;48.962;9.182;2023-05-29T00:34:37;11.87;;;5.83;;
19679;SDS011;9989;48.962;9.182;2023-05-29T00:37:03;13.70;;;5.97;;
19679;SDS011;9989;48.962;9.182;2023-05-29T00:39:28;11.90;;;6.00;;
19679;SDS011;9989;48.962;9.182;2023-05-29T00:41:55;11.83;;;5.23;;
19679;SDS011;9989;48.962;9.182;2023-05-29T00:44:22;12.07;;;6.10;;
19679;SDS011;9989;48.962;9.182;2023-05-29T00:46:51;11.60;;;5.47;;
19679;SDS011;9989;48.962;9.182;2023-05-29T00:49:18;12.70;;;5.67;;
19679;SDS011;9989;48.962;9.182;2023-05-29T00:51:45;11.37;;;5.00;;
19679;SDS011;9989;48.962;9.182;2023-05-29T00:54:12;11.53;;;5.83;;
19679;SDS011;9989;48.962;9.182;2023-05-29T00:56:39;11.43;;;6.20;;
19679;SDS011;9989;48.962;9.182;2023-05-29T00:59:09;14.03;;;6.40;;
19679;SDS011;9989;48.962;9.182;2023-05-29T01:01:35;13.60;;;6.67;;
19679;SDS011;9989;48.962;9.182;2023-05-29T01:04:01;34.60;;;7.07;;
19679;SDS011;9989;48.962;9.182;2023-05-29T01:06:31;13.97;;;5.97;;
19679;SDS011;9989;48.962;9.182;2023-05-29T01:09:00;13.97;;;6.57;;
19679;SDS011;9989;48.962;9.182;2023-05-29T01:15:08;13.20;;;6.67;;
19679;SDS011;9989;48.962;9.182;2023-05-29T01:28:14;11.10;;;5.67;;
19679;SDS011;9989;48.962;9.182;2023-05-29T01:30:44;11.80;;;5.53;;
19679;SDS011;9989;48.962;9.182;2023-05-29T01:33:11;11.40;;;5.93;;
19679;SDS011;9989;48.962;9.182;2023-05-29T01:35:36;12.03;;;4.87;;
19679;SDS011;9989;48.962;9.182;2023-05-29T01:38:02;10.57;;;5.10;;
19679;SDS011;9989;48.962;9.182;2023-05-29T01:40:27;11.80;;;4.80;;
19679;SDS011;9989;48.962;9.182;2023-05-29T01:42:53;11.37;;;4.80;;
19679;SDS011;9989;48.962;9.182;2023-05-29T01:45:19;10.40;;;5.10;;
19679;SDS011;9989;48.962;9.182;2023-05-29T01:47:45;9.20;;;4.70;;
19679;SDS011;9989;48.962;9.182;2023-05-29T01:50:12;13.07;;;5.57;;
19679;SDS011;9989;48.962;9.182;2023-05-29T01:52:40;9.63;;;4.67;;
19679;SDS011;9989;48.962;9.182;2023-05-29T01:55:06;11.30;;;5.30;;
19679;SDS011;9989;48.962;9.182;2023-05-29T01:57:32;9.33;;;4.97;;
19679;SDS011;9989;48.962;9.182;2023-05-29T01:59:58;10.10;;;4.97;;
19679;SDS011;9989;48.962;9.182;2023-05-29T02:02:23;10.43;;;5.03;;
19679;SDS011;9989;48.962;9.182;2023-05-29T02:04:49;9.27;;;4.53;;
19679;SDS011;9989;48.962;9.182;2023-05-29T02:07:16;10.33;;;4.73;;
19679;SDS011;9989;48.962;9.182;2023-05-29T02:09:42;12.27;;;5.40;;
19679;SDS011;9989;48.962;9.182;2023-05-29T02:12:08;11.47;;;5.00;;
19679;SDS011;9989;48.962;9.182;2023-05-29T02:14:33;12.03;;;5.27;;
19679;SDS011;9989;48.962;9.182;2023-05-29T02:16:59;10.43;;;5.27;;
19679;SDS011;9989;48.962;9.182;2023-05-29T02:19:26;10.57;;;4.57;;
19679;SDS011;9989;48.962;9.182;2023-05-29T02:21:52;10.23;;;4.80;;
19679;SDS011;9989;48.962;9.182;2023-05-29T02:24:18;8.93;;;4.47;;
19679;SDS011;9989;48.962;9.182;2023-05-29T02:26:45;12.23;;;4.63;;
19679;SDS011;9989;48.962;9.182;2023-05-29T02:29:12;9.80;;;4.73;;
19679;SDS011;9989;48.962;9.182;2023-05-29T02:31:38;10.33;;;5.17;;
19679;SDS011;9989;48.962;9.182;2023-05-29T02:34:04;9.73;;;4.43;;
19679;SDS011;9989;48.962;9.182;2023-05-29T02:36:29;10.50;;;5.00;;
19679;SDS011;9989;48.962;9.182;2023-05-29T02:38:55;16.43;;;6.93;;
19679;SDS011;9989;48.962;9.182;2023-05-29T02:41:20;14.33;;;6.33;;
19679;SDS011;9989;48.962;9.182;2023-05-29T02:43:46;12.87;;;6.47;;
19679;SDS011;9989;48.962;9.182;2023-05-29T02:46:12;12.50;;;5.80;;
19679;SDS011;9989;48.962;9.182;2023-05-29T02:48:37;12.53;;;6.43;;
19679;SDS011;9989;48.962;9.182;2023-05-29T02:51:03;14.20;;;5.83;;
19679;SDS011;9989;48.962;9.182;2023-05-29T02:53:29;12.87;;;5.87;;
19679;SDS011;9989;48.962;9.182;2023-05-29T02:55:54;10.97;;;5.37;;
19679;SDS011;9989;48.962;9.182;2023-05-29T02:58:20;11.27;;;5.37;;
19679;SDS011;9989;48.962;9.182;2023-05-29T03:00:46;10.73;;;4.77;;
19679;SDS011;9989;48.962;9.182;2023-05-29T03:03:12;12.00;;;5.50;;
19679;SDS011;9989;48.962;9.182;2023-05-29T03:05:38;12.83;;;5.50;;
19679;SDS011;9989;48.962;9.182;2023-05-29T03:08:04;11.50;;;6.10;;
19679;SDS011;9989;48.962;9.182;2023-05-29T03:10:30;12.63;;;5.50;;
19679;SDS011;9989;48.962;9.182;2023-05-29T03:12:55;11.53;;;5.87;;
19679;SDS011;9989;48.962;9.182;2023-05-29T03:15:21;11.23;;;5.60;;
19679;SDS011;9989;48.962;9.182;2023-05-29T03:17:46;12.63;;;5.40;;
19679;SDS011;9989;48.962;9.182;2023-05-29T03:20:12;9.93;;;5.33;;
19679;SDS011;9989;48.962;9.182;2023-05-29T03:22:40;10.27;;;5.33;;
19679;SDS011;9989;48.962;9.182;2023-05-29T03:25:06;11.07;;;5.70;;
19679;SDS011;9989;48.962;9.182;2023-05-29T03:27:32;10.80;;;4.97;;
19679;SDS011;9989;48.962;9.182;2023-05-29T03:29:58;11.43;;;5.40;;
19679;SDS011;9989;48.962;9.182;2023-05-29T03:32:24;11.60;;;5.53;;
19679;SDS011;9989;48.962;9.182;2023-05-29T03:34:50;10.93;;;5.20;;
19679;SDS011;9989;48.962;9.182;2023-05-29T03:37:16;13.43;;;5.27;;
19679;SDS011;9989;48.962;9.182;2023-05-29T03:39:41;10.97;;;5.57;;
19679;SDS011;9989;48.962;9.182;2023-05-29T03:42:07;13.17;;;6.13;;
19679;SDS011;9989;48.962;9.182;2023-05-29T03:44:33;11.57;;;6.07;;
19679;SDS011;9989;48.962;9.182;2023-05-29T03:46:58;13.40;;;6.67;;
19679;SDS011;9989;48.962;9.182;2023-05-29T03:49:24;13.87;;;6.77;;
19679;SDS011;9989;48.962;9.182;2023-05-29T03:51:50;14.50;;;7.63;;
19679;SDS011;9989;48.962;9.182;2023-05-29T03:54:15;14.63;;;7.50;;
19679;SDS011;9989;48.962;9.182;2023-05-29T03:56:41;14.03;;;7.07;;
19679;SDS011;9989;48.962;9.182;2023-05-29T03:59:07;15.43;;;7.67;;
19679;SDS011;9989;48.962;9.182;2023-05-29T04:01:33;13.57;;;7.23;;
19679;SDS011;9989;48.962;9.182;2023-05-29T04:03:58;16.70;;;8.03;;
19679;SDS011;9989;48.962;9.182;2023-05-29T04:06:24;13.83;;;7.70;;
19679;SDS011;9989;48.962;9.182;2023-05-29T04:08:50;14.20;;;6.63;;
19679;SDS011;9989;48.962;9.182;2023-05-29T04:11:16;11.47;;;6.53;;
19679;SDS011;9989;48.962;9.182;2023-05-29T04:13:42;17.43;;;8.53;;
19679;SDS011;9989;48.962;9.182;2023-05-29T04:16:07;13.63;;;7.40;;
19679;SDS011;9989;48.962;9.182;2023-05-29T04:18:33;13.10;;;7.37;;
19679;SDS011;9989;48.962;9.182;2023-05-29T04:20:59;13.97;;;7.00;;
19679;SDS011;9989;48.962;9.182;2023-05-29T04:23:25;14.50;;;7.83;;
19679;SDS011;9989;48.962;9.182;2023-05-29T04:25:50;14.60;;;7.50;;
19679;SDS011;9989;48.962;9.182;2023-05-29T04:28:17;11.80;;;6.47;;
19679;SDS011;9989;48.962;9.182;2023-05-29T04:30:46;12.73;;;6.83;;
19679;SDS011;9989;48.962;9.182;2023-05-29T04:33:12;12.67;;;6.47;;
19679;SDS011;9989;48.962;9.182;2023-05-29T04:35:39;14.97;;;7.20;;
19679;SDS011;9989;48.962;9.182;2023-05-29T04:38:08;15.10;;;6.97;;
19679;SDS011;9989;48.962;9.182;2023-05-29T04:40:34;16.23;;;7.00;;
19679;SDS011;9989;48.962;9.182;2023-05-29T04:43:01;12.17;;;6.50;;
19679;SDS011;9989;48.962;9.182;2023-05-29T04:45:30;12.10;;;6.40;;
19679;SDS011;9989;48.962;9.182;2023-05-29T04:47:55;16.70;;;8.23;;
19679;SDS011;9989;48.962;9.182;2023-05-29T04:50:21;13.60;;;6.90;;
19679;SDS011;9989;48.962;9.182;2023-05-29T04:52:48;14.40;;;7.27;;
19679;SDS011;9989;48.962;9.182;2023-05-29T04:55:13;13.83;;;6.97;;
19679;SDS011;9989;48.962;9.182;2023-05-29T04:57:39;12.60;;;6.73;;
19679;SDS011;9989;48.962;9.182;2023-05-29T05:00:06;14.13;;;6.90;;
19679;SDS011;9989;48.962;9.182;2023-05-29T05:02:34;13.90;;;6.60;;
19679;SDS011;9989;48.962;9.182;2023-05-29T05:05:00;14.87;;;6.93;;
19679;SDS011;9989;48.962;9.182;2023-05-29T05:07:25;12.53;;;6.80;;
19679;SDS011;9989;48.962;9.182;2023-05-29T05:09:51;13.57;;;7.03;;
19679;SDS011;9989;48.962;9.182;2023-05-29T05:12:16;14.73;;;7.00;;
19679;SDS011;9989;48.962;9.182;2023-05-29T05:14:42;14.43;;;7.10;;
19679;SDS011;9989;48.962;9.182;2023-05-29T05:17:08;13.90;;;6.90;;
19679;SDS011;9989;48.962;9.182;2023-05-29T05:19:33;12.37;;;6.73;;
19679;SDS011;9989;48.962;9.182;2023-05-29T05:21:59;12.63;;;6.73;;
19679;SDS011;9989;48.962;9.182;2023-05-29T05:24:25;11.83;;;5.87;;
19679;SDS011;9989;48.962;9.182;2023-05-29T05:26:50;10.07;;;5.53;;
19679;SDS011;9989;48.962;9.182;2023-05-29T05:29:16;11.07;;;5.50;;
19679;SDS011;9989;48.962;9.182;2023-05-29T05:31:42;11.90;;;5.53;;
19679;SDS011;9989;48.962;9.182;2023-05-29T05:34:07;12.63;;;6.40;;
19679;SDS011;9989;48.962;9.182;2023-05-29T05:36:33;14.40;;;6.87;;
19679;SDS011;9989;48.962;9.182;2023-05-29T05:38:58;13.43;;;7.37;;
19679;SDS011;9989;48.962;9.182;2023-05-29T05:41:24;12.30;;;6.57;;
19679;SDS011;9989;48.962;9.182;2023-05-29T05:43:50;14.13;;;6.93;;
19679;SDS011;9989;48.962;9.182;2023-05-29T05:46:16;12.90;;;6.23;;
19679;SDS011;9989;48.962;9.182;2023-05-29T05:48:42;11.47;;;5.73;;
19679;SDS011;9989;48.962;9.182;2023-05-29T05:51:08;14.77;;;7.27;;
19679;SDS011;9989;48.962;9.182;2023-05-29T05:53:35;14.97;;;6.53;;
19679;SDS011;9989;48.962;9.182;2023-05-29T05:56:01;13.93;;;7.50;;
19679;SDS011;9989;48.962;9.182;2023-05-29T05:58:26;11.30;;;5.60;;
19679;SDS011;9989;48.962;9.182;2023-05-29T06:00:52;10.03;;;4.57;;
19679;SDS011;9989;48.962;9.182;2023-05-29T06:03:18;9.83;;;4.60;;
19679;SDS011;9989;48.962;9.182;2023-05-29T06:05:44;10.33;;;5.07;;
19679;SDS011;9989;48.962;9.182;2023-05-29T06:08:10;10.00;;;4.73;;
19679;SDS011;9989;48.962;9.182;2023-05-29T06:10:35;8.90;;;4.30;;
19679;SDS011;9989;48.962;9.182;2023-05-29T06:13:01;9.73;;;4.40;;
19679;SDS011;9989;48.962;9.182;2023-05-29T06:15:27;9.97;;;4.87;;
19679;SDS011;9989;48.962;9.182;2023-05-29T06:17:52;12.30;;;4.80;;
19679;SDS011;9989;48.962;9.182;2023-05-29T06:20:20;9.27;;;4.23;;
19679;SDS011;9989;48.962;9.182;2023-05-29T06:22:46;11.00;;;5.03;;
19679;SDS011;9989;48.962;9.182;2023-05-29T06:25:18;10.83;;;4.70;;
19679;SDS011;9989;48.962;9.182;2023-05-29T06:27:44;9.07;;;4.70;;
19679;SDS011;9989;48.962;9.182;2023-05-29T06:30:11;11.33;;;4.50;;
19679;SDS011;9989;48.962;9.182;2023-05-29T06:32:37;13.53;;;4.50;;
19679;SDS011;9989;48.962;9.182;2023-05-29T06:35:05;12.43;;;4.87;;
19679;SDS011;9989;48.962;9.182;2023-05-29T06:37:31;13.90;;;5.40;;
19679;SDS011;9989;48.962;9.182;2023-05-29T06:39:57;11.93;;;4.80;;
19679;SDS011;9989;48.962;9.182;2023-05-29T06:42:23;12.13;;;5.20;;
19679;SDS011;9989;48.962;9.182;2023-05-29T06:44:49;10.10;;;4.70;;
19679;SDS011;9989;48.962;9.182;2023-05-29T06:47:15;13.27;;;5.30;;
19679;SDS011;9989;48.962;9.182;2023-05-29T06:49:40;10.90;;;5.00;;
19679;SDS011;9989;48.962;9.182;2023-05-29T06:52:06;12.77;;;4.50;;
19679;SDS011;9989;48.962;9.182;2023-05-29T06:54:31;10.90;;;4.33;;
19679;SDS011;9989;48.962;9.182;2023-05-29T06:56:57;10.40;;;4.33;;
19679;SDS011;9989;48.962;9.182;2023-05-29T06:59:23;12.37;;;4.90;;
19679;SDS011;9989;48.962;9.182;2023-05-29T07:01:48;9.87;;;4.10;;
19679;SDS011;9989;48.962;9.182;2023-05-29T07:04:14;10.00;;;4.10;;
19679;SDS011;9989;48.962;9.182;2023-05-29T07:06:40;8.70;;;3.83;;
19679;SDS011;9989;48.962;9.182;2023-05-29T07:09:06;10.67;;;4.73;;
19679;SDS011;9989;48.962;9.182;2023-05-29T07:11:32;11.43;;;4.13;;
19679;SDS011;9989;48.962;9.182;2023-05-29T07:13:57;9.93;;;4.87;;
19679;SDS011;9989;48.962;9.182;2023-05-29T07:16:23;9.37;;;4.23;;
19679;SDS011;9989;48.962;9.182;2023-05-29T07:18:49;10.53;;;4.20;;
19679;SDS011;9989;48.962;9.182;2023-05-29T07:21:16;9.00;;;4.03;;
19679;SDS011;9989;48.962;9.182;2023-05-29T07:23:42;9.57;;;4.40;;
19679;SDS011;9989;48.962;9.182;2023-05-29T07:26:08;7.70;;;3.80;;
19679;SDS011;9989;48.962;9.182;2023-05-29T07:28:33;8.47;;;4.00;;
19679;SDS011;9989;48.962;9.182;2023-05-29T07:30:59;9.00;;;4.03;;
19679;SDS011;9989;48.962;9.182;2023-05-29T07:33:25;9.37;;;4.50;;
19679;SDS011;9989;48.962;9.182;2023-05-29T07:35:50;9.70;;;4.63;;
19679;SDS011;9989;48.962;9.182;2023-05-29T07:38:16;8.63;;;4.40;;
19679;SDS011;9989;48.962;9.182;2023-05-29T07:40:42;8.63;;;4.07;;
19679;SDS011;9989;48.962;9.182;2023-05-29T07:43:07;10.70;;;4.40;;
19679;SDS011;9989;48.962;9.182;2023-05-29T07:45:33;8.43;;;3.87;;
19679;SDS011;9989;48.962;9.182;2023-05-29T07:47:58;10.57;;;4.03;;
19679;SDS011;9989;48.962;9.182;2023-05-29T07:50:24;10.83;;;4.13;;
19679;SDS011;9989;48.962;9.182;2023-05-29T07:52:50;10.30;;;3.90;;
19679;SDS011;9989;48.962;9.182;2023-05-29T07:55:17;14.73;;;4.87;;
19679;SDS011;9989;48.962;9.182;2023-05-29T07:57:43;9.53;;;4.27;;
19679;SDS011;9989;48.962;9.182;2023-05-29T08:00:09;11.50;;;4.30;;
19679;SDS011;9989;48.962;9.182;2023-05-29T08:02:37;10.90;;;4.70;;
19679;SDS011;9989;48.962;9.182;2023-05-29T08:05:06;9.73;;;4.20;;
19679;SDS011;9989;48.962;9.182;2023-05-29T08:07:32;10.43;;;4.57;;
19679;SDS011;9989;48.962;9.182;2023-05-29T08:09:58;11.63;;;3.90;;
19679;SDS011;9989;48.962;9.182;2023-05-29T08:12:24;10.17;;;4.07;;
19679;SDS011;9989;48.962;9.182;2023-05-29T08:14:50;9.73;;;4.40;;
19679;SDS011;9989;48.962;9.182;2023-05-29T08:17:16;9.23;;;3.87;;
19679;SDS011;9989;48.962;9.182;2023-05-29T08:19:42;9.83;;;4.20;;
19679;SDS011;9989;48.962;9.182;2023-05-29T08:22:07;8.77;;;4.00;;
19679;SDS011;9989;48.962;9.182;2023-05-29T08:24:37;9.27;;;4.20;;
19679;SDS011;9989;48.962;9.182;2023-05-29T08:27:02;9.87;;;4.33;;
19679;SDS011;9989;48.962;9.182;2023-05-29T08:29:28;10.07;;;4.37;;
19679;SDS011;9989;48.962;9.182;2023-05-29T08:31:54;8.50;;;4.03;;
19679;SDS011;9989;48.962;9.182;2023-05-29T08:34:19;10.87;;;4.23;;
19679;SDS011;9989;48.962;9.182;2023-05-29T08:36:45;9.80;;;4.17;;
19679;SDS011;9989;48.962;9.182;2023-05-29T08:39:11;12.57;;;4.83;;
19679;SDS011;9989;48.962;9.182;2023-05-29T08:44:32;10.87;;;4.23;;
19679;SDS011;9989;48.962;9.182;2023-05-29T08:46:58;8.80;;;4.43;;
19679;SDS011;9989;48.962;9.182;2023-05-29T08:49:28;8.77;;;4.00;;
19679;SDS011;9989;48.962;9.182;2023-05-29T08:52:07;11.27;;;4.40;;
19679;SDS011;9989;48.962;9.182;2023-05-29T08:54:38;8.43;;;4.03;;
19679;SDS011;9989;48.962;9.182;2023-05-29T08:57:05;9.77;;;4.50;;
19679;SDS011;9989;48.962;9.182;2023-05-29T08:59:31;10.50;;;4.67;;
19679;SDS011;9989;48.962;9.182;2023-05-29T09:01:58;10.63;;;4.10;;
19679;SDS011;9989;48.962;9.182;2023-05-29T09:04:23;8.73;;;4.07;;
19679;SDS011;9989;48.962;9.182;2023-05-29T09:06:49;9.80;;;5.00;;
19679;SDS011;9989;48.962;9.182;2023-05-29T09:09:17;10.17;;;4.67;;
19679;SDS011;9989;48.962;9.182;2023-05-29T09:11:43;9.70;;;4.50;;
19679;SDS011;9989;48.962;9.182;2023-05-29T09:16:59;10.10;;;5.17;;
19679;SDS011;9989;48.962;9.182;2023-05-29T09:19:25;10.50;;;4.87;;
19679;SDS011;9989;48.962;9.182;2023-05-29T09:21:51;10.50;;;4.83;;
19679;SDS011;9989;48.962;9.182;2023-05-29T09:24:16;11.03;;;4.83;;
19679;SDS011;9989;48.962;9.182;2023-05-29T09:26:49;8.97;;;4.07;;
19679;SDS011;9989;48.962;9.182;2023-05-29T09:29:15;10.60;;;4.70;;
19679;SDS011;9989;48.962;9.182;2023-05-29T09:31:47;8.83;;;4.17;;
19679;SDS011;9989;48.962;9.182;2023-05-29T09:34:13;14.10;;;4.23;;
19679;SDS011;9989;48.962;9.182;2023-05-29T09:36:39;10.87;;;4.33;;
19679;SDS011;9989;48.962;9.182;2023-05-29T09:39:05;25.60;;;5.10;;
19679;SDS011;9989;48.962;9.182;2023-05-29T09:41:35;8.17;;;3.93;;
19679;SDS011;9989;48.962;9.182;2023-05-29T09:44:07;9.40;;;4.30;;
19679;SDS011;9989;48.962;9.182;2023-05-29T09:46:35;9.37;;;4.60;;
19679;SDS011;9989;48.962;9.182;2023-05-29T09:49:02;10.10;;;4.17;;
19679;SDS011;9989;48.962;9.182;2023-05-29T09:51:28;9.23;;;4.57;;
19679;SDS011;9989;48.962;9.182;2023-05-29T09:53:55;11.97;;;4.53;;
19679;SDS011;9989;48.962;9.182;2023-05-29T09:56:25;8.20;;;3.93;;
19679;SDS011;9989;48.962;9.182;2023-05-29T09:58:53;9.43;;;4.50;;
19679;SDS011;9989;48.962;9.182;2023-05-29T10:01:22;11.13;;;4.20;;
19679;SDS011;9989;48.962;9.182;2023-05-29T10:03:49;10.03;;;5.07;;
19679;SDS011;9989;48.962;9.182;2023-05-29T10:06:16;9.67;;;3.83;;
19679;SDS011;9989;48.962;9.182;2023-05-29T10:08:46;9.80;;;4.57;;
19679;SDS011;9989;48.962;9.182;2023-05-29T10:11:16;10.53;;;3.80;;
19679;SDS011;9989;48.962;9.182;2023-05-29T10:13:48;9.27;;;4.10;;
19679;SDS011;9989;48.962;9.182;2023-05-29T10:16:16;10.67;;;4.23;;
19679;SDS011;9989;48.962;9.182;2023-05-29T10:18:47;10.00;;;4.40;;
19679;SDS011;9989;48.962;9.182;2023-05-29T10:21:19;12.00;;;4.50;;
19679;SDS011;9989;48.962;9.182;2023-05-29T10:23:50;10.13;;;4.03;;
19679;SDS011;9989;48.962;9.182;2023-05-29T10:26:19;8.07;;;3.50;;
19679;SDS011;9989;48.962;9.182;2023-05-29T10:31:42;13.90;;;4.60;;
19679;SDS011;9989;48.962;9.182;2023-05-29T10:37:35;8.80;;;4.17;;
19679;SDS011;9989;48.962;9.182;2023-05-29T10:40:08;8.70;;;4.13;;
19679;SDS011;9989;48.962;9.182;2023-05-29T10:45:09;9.23;;;3.57;;
19679;SDS011;9989;48.962;9.182;2023-05-29T10:47:38;11.33;;;3.50;;
19679;SDS011;9989;48.962;9.182;2023-05-29T10:50:04;12.50;;;4.30;;
19679;SDS011;9989;48.962;9.182;2023-05-29T10:52:33;7.60;;;4.03;;
19679;SDS011;9989;48.962;9.182;2023-05-29T10:55:00;10.30;;;4.30;;
19679;SDS011;9989;48.962;9.182;2023-05-29T10:57:29;10.73;;;4.40;;
19679;SDS011;9989;48.962;9.182;2023-05-29T11:00:15;12.27;;;4.60;;
19679;SDS011;9989;48.962;9.182;2023-05-29T11:02:45;10.50;;;4.47;;
19679;SDS011;9989;48.962;9.182;2023-05-29T11:05:18;8.70;;;4.07;;
19679;SDS011;9989;48.962;9.182;2023-05-29T11:07:52;10.63;;;4.03;;
19679;SDS011;9989;48.962;9.182;2023-05-29T11:10:39;9.13;;;3.77;;
19679;SDS011;9989;48.962;9.182;2023-05-29T11:13:24;9.57;;;4.60;;
19679;SDS011;9989;48.962;9.182;2023-05-29T11:18:45;9.50;;;3.87;;
19679;SDS011;9989;48.962;9.182;2023-05-29T11:24:21;10.77;;;4.20;;
19679;SDS011;9989;48.962;9.182;2023-05-29T11:26:49;8.40;;;3.87;;
19679;SDS011;9989;48.962;9.182;2023-05-29T11:29:22;8.80;;;3.83;;
19679;SDS011;9989;48.962;9.182;2023-05-29T11:31:49;8.03;;;3.77;;
19679;SDS011;9989;48.962;9.182;2023-05-29T11:34:28;9.07;;;4.20;;
19679;SDS011;9989;48.962;9.182;2023-05-29T11:36:58;8.93;;;3.43;;
19679;SDS011;9989;48.962;9.182;2023-05-29T11:39:25;7.83;;;3.80;;
19679;SDS011;9989;48.962;9.182;2023-05-29T11:41:52;9.40;;;3.90;;
19679;SDS011;9989;48.962;9.182;2023-05-29T11:44:21;9.43;;;4.10;;
19679;SDS011;9989;48.962;9.182;2023-05-29T11:47:02;7.30;;;3.40;;
19679;SDS011;9989;48.962;9.182;2023-05-29T11:49:29;9.47;;;4.17;;
19679;SDS011;9989;48.962;9.182;2023-05-29T11:52:09;8.93;;;3.77;;
19679;SDS011;9989;48.962;9.182;2023-05-29T11:54:36;12.13;;;5.07;;
19679;SDS011;9989;48.962;9.182;2023-05-29T11:57:04;9.03;;;4.00;;
19679;SDS011;9989;48.962;9.182;2023-05-29T11:59:33;11.57;;;4.57;;
19679;SDS011;9989;48.962;9.182;2023-05-29T12:02:01;8.33;;;3.60;;
19679;SDS011;9989;48.962;9.182;2023-05-29T12:04:28;9.80;;;4.50;;
19679;SDS011;9989;48.962;9.182;2023-05-29T12:06:53;7.33;;;3.60;;
19679;SDS011;9989;48.962;9.182;2023-05-29T12:09:26;7.83;;;3.70;;
19679;SDS011;9989;48.962;9.182;2023-05-29T12:11:53;7.50;;;3.87;;
19679;SDS011;9989;48.962;9.182;2023-05-29T12:14:19;7.43;;;3.47;;
19679;SDS011;9989;48.962;9.182;2023-05-29T12:16:45;9.00;;;3.70;;
19679;SDS011;9989;48.962;9.182;2023-05-29T12:19:11;9.30;;;4.03;;
19679;SDS011;9989;48.962;9.182;2023-05-29T12:21:40;7.20;;;3.37;;
19679;SDS011;9989;48.962;9.182;2023-05-29T12:24:08;8.07;;;3.90;;
19679;SDS011;9989;48.962;9.182;2023-05-29T12:26:34;8.20;;;3.10;;
19679;SDS011;9989;48.962;9.182;2023-05-29T12:29:03;7.90;;;3.73;;
19679;SDS011;9989;48.962;9.182;2023-05-29T12:31:30;13.60;;;3.97;;
19679;SDS011;9989;48.962;9.182;2023-05-29T12:34:07;9.30;;;3.83;;
19679;SDS011;9989;48.962;9.182;2023-05-29T12:36:34;8.50;;;3.50;;
19679;SDS011;9989;48.962;9.182;2023-05-29T12:38:59;8.70;;;3.97;;
19679;SDS011;9989;48.962;9.182;2023-05-29T12:41:33;9.50;;;3.77;;
19679;SDS011;9989;48.962;9.182;2023-05-29T12:44:01;10.23;;;3.80;;
19679;SDS011;9989;48.962;9.182;2023-05-29T12:46:34;8.40;;;4.03;;
19679;SDS011;9989;48.962;9.182;2023-05-29T12:51:40;8.70;;;3.77;;
19679;SDS011;9989;48.962;9.182;2023-05-29T12:54:16;9.00;;;3.50;;
19679;SDS011;9989;48.962;9.182;2023-05-29T12:56:42;7.77;;;3.50;;
19679;SDS011;9989;48.962;9.182;2023-05-29T12:59:08;7.63;;;3.53;;
19679;SDS011;9989;48.962;9.182;2023-05-29T13:01:38;8.80;;;4.23;;
19679;SDS011;9989;48.962;9.182;2023-05-29T13:04:04;8.03;;;3.63;;
19679;SDS011;9989;48.962;9.182;2023-05-29T13:06:34;9.50;;;3.90;;
19679;SDS011;9989;48.962;9.182;2023-05-29T13:09:00;8.10;;;3.67;;
19679;SDS011;9989;48.962;9.182;2023-05-29T13:11:26;9.33;;;3.40;;
19679;SDS011;9989;48.962;9.182;2023-05-29T13:13:52;7.87;;;3.33;;
19679;SDS011;9989;48.962;9.182;2023-05-29T13:16:17;7.77;;;3.47;;
19679;SDS011;9989;48.962;9.182;2023-05-29T13:18:43;8.10;;;3.37;;
19679;SDS011;9989;48.962;9.182;2023-05-29T13:21:09;10.27;;;3.07;;
19679;SDS011;9989;48.962;9.182;2023-05-29T13:23:35;8.53;;;3.47;;
19679;SDS011;9989;48.962;9.182;2023-05-29T13:26:03;10.03;;;3.60;;
19679;SDS011;9989;48.962;9.182;2023-05-29T13:28:30;7.90;;;3.60;;
19679;SDS011;9989;48.962;9.182;2023-05-29T13:30:55;8.70;;;3.57;;
19679;SDS011;9989;48.962;9.182;2023-05-29T13:33:21;7.80;;;3.20;;
19679;SDS011;9989;48.962;9.182;2023-05-29T13:35:47;7.17;;;3.33;;
19679;SDS011;9989;48.962;9.182;2023-05-29T13:38:12;6.07;;;2.90;;
19679;SDS011;9989;48.962;9.182;2023-05-29T13:40:38;6.70;;;3.00;;
19679;SDS011;9989;48.962;9.182;2023-05-29T13:43:04;8.07;;;3.70;;
19679;SDS011;9989;48.962;9.182;2023-05-29T13:45:30;9.13;;;3.33;;
19679;SDS011;9989;48.962;9.182;2023-05-29T13:47:55;7.57;;;3.37;;
19679;SDS011;9989;48.962;9.182;2023-05-29T13:50:21;8.50;;;3.47;;
19679;SDS011;9989;48.962;9.182;2023-05-29T13:52:48;7.57;;;3.27;;
19679;SDS011;9989;48.962;9.182;2023-05-29T13:55:15;8.77;;;3.17;;
19679;SDS011;9989;48.962;9.182;2023-05-29T13:57:41;7.60;;;3.30;;
19679;SDS011;9989;48.962;9.182;2023-05-29T14:00:08;7.00;;;3.50;;
19679;SDS011;9989;48.962;9.182;2023-05-29T14:02:36;7.50;;;3.07;;
19679;SDS011;9989;48.962;9.182;2023-05-29T14:05:03;7.60;;;3.43;;
19679;SDS011;9989;48.962;9.182;2023-05-29T14:07:28;9.43;;;3.67;;
19679;SDS011;9989;48.962;9.182;2023-05-29T14:09:54;11.67;;;4.10;;
19679;SDS011;9989;48.962;9.182;2023-05-29T14:12:20;7.63;;;3.60;;
19679;SDS011;9989;48.962;9.182;2023-05-29T14:14:45;7.77;;;3.57;;
19679;SDS011;9989;48.962;9.182;2023-05-29T14:17:11;7.97;;;3.23;;
19679;SDS011;9989;48.962;9.182;2023-05-29T14:19:38;7.93;;;3.60;;
19679;SDS011;9989;48.962;9.182;2023-05-29T14:22:04;7.00;;;3.10;;
19679;SDS011;9989;48.962;9.182;2023-05-29T14:24:29;7.93;;;3.40;;
19679;SDS011;9989;48.962;9.182;2023-05-29T14:26:55;7.60;;;3.30;;
19679;SDS011;9989;48.962;9.182;2023-05-29T14:29:21;10.23;;;3.83;;
19679;SDS011;9989;48.962;9.182;2023-05-29T14:31:46;7.23;;;3.43;;
19679;SDS011;9989;48.962;9.182;2023-05-29T14:34:12;7.17;;;3.37;;
19679;SDS011;9989;48.962;9.182;2023-05-29T14:36:38;6.40;;;3.17;;
19679;SDS011;9989;48.962;9.182;2023-05-29T14:39:05;7.37;;;3.33;;
19679;SDS011;9989;48.962;9.182;2023-05-29T14:41:31;7.43;;;3.03;;
19679;SDS011;9989;48.962;9.182;2023-05-29T14:43:57;7.10;;;2.97;;
19679;SDS011;9989;48.962;9.182;2023-05-29T14:46:24;8.97;;;3.30;;
19679;SDS011;9989;48.962;9.182;2023-05-29T14:48:56;8.33;;;2.90;;
19679;SDS011;9989;48.962;9.182;2023-05-29T14:51:23;8.07;;;3.17;;
19679;SDS011;9989;48.962;9.182;2023-05-29T14:53:49;9.97;;;3.50;;
19679;SDS011;9989;48.962;9.182;2023-05-29T14:56:15;9.03;;;3.03;;
19679;SDS011;9989;48.962;9.182;2023-05-29T14:58:42;7.47;;;3.23;;
19679;SDS011;9989;48.962;9.182;2023-05-29T15:01:08;7.73;;;3.43;;
19679;SDS011;9989;48.962;9.182;2023-05-29T15:03:34;7.20;;;3.30;;
19679;SDS011;9989;48.962;9.182;2023-05-29T15:06:00;7.90;;;3.47;;
19679;SDS011;9989;48.962;9.182;2023-05-29T15:08:27;7.63;;;3.40;;
19679;SDS011;9989;48.962;9.182;2023-05-29T15:10:56;7.27;;;3.30;;
19679;SDS011;9989;48.962;9.182;2023-05-29T15:13:21;7.63;;;3.10;;
19679;SDS011;9989;48.962;9.182;2023-05-29T15:15:48;7.17;;;3.10;;
19679;SDS011;9989;48.962;9.182;2023-05-29T15:18:14;8.10;;;3.93;;
19679;SDS011;9989;48.962;9.182;2023-05-29T15:20:40;8.60;;;3.47;;
19679;SDS011;9989;48.962;9.182;2023-05-29T15:23:06;6.97;;;3.40;;
19679;SDS011;9989;48.962;9.182;2023-05-29T15:25:31;7.47;;;3.43;;
19679;SDS011;9989;48.962;9.182;2023-05-29T15:27:57;7.43;;;3.20;;